sensor_id;sensor_type;location;lat;lon;timestamp;pressure;altitude;pressure_sealevel;temperature;humidity
23261;BME280;11799;47.740;-3.390;2023-02-15T00:00:42;102427.47;;;7.68;79.06
23261;BME280;11799;47.740;-3.390;2023-02-15T00:03:07;102414.34;;;7.68;79.71
23261;BME280;11799;47.740;-3.390;2023-02-15T00:05:33;102410.00;;;7.67;79.17
23261;BME280;11799;47.740;-3.390;2023-02-15T00:07:58;102415.06;;;7.72;80.08
23261;BME280;11799;47.740;-3.390;2023-02-15T00:10:24;102415.06;;;7.72;79.53
23261;BME280;11799;47.740;-3.390;2023-02-15T00:12:49;102409.06;;;7.68;79.31
23261;BME280;11799;47.740;-3.390;2023-02-15T00:15:15;102406.38;;;7.70;79.25
23261;BME280;11799;47.740;-3.390;2023-02-15T00:17:41;102405.53;;;7.69;79.67
23261;BME280;11799;47.740;-3.390;2023-02-15T00:20:07;102401.97;;;7.70;79.87
23261;BME280;11799;47.740;-3.390;2023-02-15T00:22:32;102405.53;;;7.69;79.05
23261;BME280;11799;47.740;-3.390;2023-02-15T00:24:58;102403.81;;;7.68;79.97
23261;BME280;11799;47.740;-3.390;2023-02-15T00:27:23;102404.66;;;7.69;79.42
23261;BME280;11799;47.740;-3.390;2023-02-15T00:29:49;102391.72;;;7.64;79.40
23261;BME280;11799;47.740;-3.390;2023-02-15T00:32:15;102394.41;;;7.62;78.43
23261;BME280;11799;47.740;-3.390;2023-02-15T00:34:40;102383.94;;;7.61;79.09
23261;BME280;11799;47.740;-3.390;2023-02-15T00:37:06;102385.66;;;7.62;79.06
23261;BME280;11799;47.740;-3.390;2023-02-15T00:39:31;102384.91;;;7.58;79.38
23261;BME280;11799;47.740;-3.390;2023-02-15T00:41:58;102391.16;;;7.56;79.32
23261;BME280;11799;47.740;-3.390;2023-02-15T00:44:23;102381.63;;;7.53;78.67
23261;BME280;11799;47.740;-3.390;2023-02-15T00:46:49;102386.81;;;7.55;79.16
23261;BME280;11799;47.740;-3.390;2023-02-15T00:49:15;102384.25;;;7.53;78.91
23261;BME280;11799;47.740;-3.390;2023-02-15T00:51:40;102385.16;;;7.52;79.60
23261;BME280;11799;47.740;-3.390;2023-02-15T00:54:07;102384.47;;;7.49;79.67
23261;BME280;11799;47.740;-3.390;2023-02-15T00:56:32;102379.22;;;7.49;79.38
23261;BME280;11799;47.740;-3.390;2023-02-15T00:58:58;102378.59;;;7.42;79.14
23261;BME280;11799;47.740;-3.390;2023-02-15T01:01:23;102382.94;;;7.43;79.51
23261;BME280;11799;47.740;-3.390;2023-02-15T01:03:51;102378.59;;;7.42;79.06
23261;BME280;11799;47.740;-3.390;2023-02-15T01:06:16;102375.22;;;7.39;78.90
23261;BME280;11799;47.740;-3.390;2023-02-15T01:08:43;102371.00;;;7.35;79.39
23261;BME280;11799;47.740;-3.390;2023-02-15T01:11:12;102367.59;;;7.33;79.28
23261;BME280;11799;47.740;-3.390;2023-02-15T01:13:39;102363.91;;;7.37;79.42
23261;BME280;11799;47.740;-3.390;2023-02-15T01:16:05;102372.06;;;7.31;79.13
23261;BME280;11799;47.740;-3.390;2023-02-15T01:18:31;102369.53;;;7.27;79.36
23261;BME280;11799;47.740;-3.390;2023-02-15T01:20:56;102368.63;;;7.28;80.10
23261;BME280;11799;47.740;-3.390;2023-02-15T01:23:22;102368.88;;;7.22;79.30
23261;BME280;11799;47.740;-3.390;2023-02-15T01:25:48;102368.00;;;7.22;79.80
23261;BME280;11799;47.740;-3.390;2023-02-15T01:28:14;102356.81;;;7.17;79.21
23261;BME280;11799;47.740;-3.390;2023-02-15T01:30:39;102363.78;;;7.18;79.56
23261;BME280;11799;47.740;-3.390;2023-02-15T01:33:05;102367.56;;;7.11;79.38
23261;BME280;11799;47.740;-3.390;2023-02-15T01:35:31;102355.28;;;7.11;79.49
23261;BME280;11799;47.740;-3.390;2023-02-15T01:37:57;102354.50;;;7.09;79.79
23261;BME280;11799;47.740;-3.390;2023-02-15T01:40:23;102356.31;;;7.07;80.05
23261;BME280;11799;47.740;-3.390;2023-02-15T01:42:53;102349.41;;;7.05;80.11
23261;BME280;11799;47.740;-3.390;2023-02-15T01:50:33;102348.72;;;7.00;80.06
23261;BME280;11799;47.740;-3.390;2023-02-15T01:55:40;102357.59;;;6.97;79.95
23261;BME280;11799;47.740;-3.390;2023-02-15T01:58:08;102352.66;;;6.89;79.68
23261;BME280;11799;47.740;-3.390;2023-02-15T02:00:35;102362.94;;;6.94;79.93
23261;BME280;11799;47.740;-3.390;2023-02-15T02:03:01;102351.84;;;6.87;80.35
23261;BME280;11799;47.740;-3.390;2023-02-15T02:05:28;102352.72;;;6.88;79.81
23261;BME280;11799;47.740;-3.390;2023-02-15T02:07:57;102349.28;;;6.86;80.19
23261;BME280;11799;47.740;-3.390;2023-02-15T02:10:24;102346.84;;;6.81;80.43
23261;BME280;11799;47.740;-3.390;2023-02-15T02:12:53;102347.75;;;6.80;80.03
23261;BME280;11799;47.740;-3.390;2023-02-15T02:15:24;102343.47;;;6.78;80.72
23261;BME280;11799;47.740;-3.390;2023-02-15T02:21:12;102348.19;;;6.68;80.03
23261;BME280;11799;47.740;-3.390;2023-02-15T02:38:23;102342.38;;;6.60;80.21
23261;BME280;11799;47.740;-3.390;2023-02-15T02:41:00;102350.19;;;6.61;80.92
23261;BME280;11799;47.740;-3.390;2023-02-15T02:46:28;102331.19;;;6.55;80.53
23261;BME280;11799;47.740;-3.390;2023-02-15T02:48:56;102331.31;;;6.52;80.96
23261;BME280;11799;47.740;-3.390;2023-02-15T02:51:22;102323.44;;;6.52;80.48
23261;BME280;11799;47.740;-3.390;2023-02-15T02:53:58;102325.94;;;6.55;81.10
23261;BME280;11799;47.740;-3.390;2023-02-15T02:56:46;102318.91;;;6.55;80.52
23261;BME280;11799;47.740;-3.390;2023-02-15T02:59:24;102313.03;;;6.49;80.29
23261;BME280;11799;47.740;-3.390;2023-02-15T03:01:59;102313.91;;;6.49;80.63
23261;BME280;11799;47.740;-3.390;2023-02-15T03:04:28;102318.22;;;6.50;81.00
23261;BME280;11799;47.740;-3.390;2023-02-15T03:07:15;102311.16;;;6.52;81.03
23261;BME280;11799;47.740;-3.390;2023-02-15T03:09:51;102305.06;;;6.52;80.66
23261;BME280;11799;47.740;-3.390;2023-02-15T03:12:24;102312.94;;;6.52;80.76
23261;BME280;11799;47.740;-3.390;2023-02-15T03:17:27;102304.44;;;6.45;80.49
23261;BME280;11799;47.740;-3.390;2023-02-15T03:19:57;102319.03;;;6.52;80.80
23261;BME280;11799;47.740;-3.390;2023-02-15T03:22:35;102319.78;;;6.56;80.72
23261;BME280;11799;47.740;-3.390;2023-02-15T03:25:10;102313.91;;;6.49;80.93
23261;BME280;11799;47.740;-3.390;2023-02-15T03:27:45;102307.06;;;6.45;80.19
23261;BME280;11799;47.740;-3.390;2023-02-15T03:30:13;102308.75;;;6.46;79.72
23261;BME280;11799;47.740;-3.390;2023-02-15T03:32:41;102313.25;;;6.43;79.95
23261;BME280;11799;47.740;-3.390;2023-02-15T03:35:08;102311.56;;;6.42;80.54
23261;BME280;11799;47.740;-3.390;2023-02-15T03:40:28;102302.22;;;6.35;80.17
23261;BME280;11799;47.740;-3.390;2023-02-15T03:43:21;102311.50;;;6.43;80.71
23261;BME280;11799;47.740;-3.390;2023-02-15T03:45:52;102306.63;;;6.34;80.47
23261;BME280;11799;47.740;-3.390;2023-02-15T03:48:30;102308.44;;;6.32;79.95
23261;BME280;11799;47.740;-3.390;2023-02-15T03:51:01;102304.97;;;6.32;79.71
23261;BME280;11799;47.740;-3.390;2023-02-15T03:53:48;102299.03;;;6.26;79.93
23261;BME280;11799;47.740;-3.390;2023-02-15T03:56:14;102298.84;;;6.31;80.30
23261;BME280;11799;47.740;-3.390;2023-02-15T03:58:40;102301.41;;;6.33;79.84
23261;BME280;11799;47.740;-3.390;2023-02-15T04:01:34;102303.06;;;6.35;80.42
23261;BME280;11799;47.740;-3.390;2023-02-15T04:04:20;102311.19;;;6.29;80.09
23261;BME280;11799;47.740;-3.390;2023-02-15T04:06:47;102296.56;;;6.22;79.14
23261;BME280;11799;47.740;-3.390;2023-02-15T04:09:13;102299.06;;;6.25;79.36
23261;BME280;11799;47.740;-3.390;2023-02-15T04:11:58;102300.84;;;6.24;79.45
23261;BME280;11799;47.740;-3.390;2023-02-15T04:14:23;102301.97;;;6.17;79.43
23261;BME280;11799;47.740;-3.390;2023-02-15T04:17:08;102301.22;;;6.14;79.05
23261;BME280;11799;47.740;-3.390;2023-02-15T04:19:34;102299.50;;;6.13;79.33
23261;BME280;11799;47.740;-3.390;2023-02-15T04:22:19;102296.13;;;6.09;79.45
23261;BME280;11799;47.740;-3.390;2023-02-15T04:25:04;102298.06;;;6.04;78.93
23261;BME280;11799;47.740;-3.390;2023-02-15T04:27:49;102294.66;;;6.02;78.83
23261;BME280;11799;47.740;-3.390;2023-02-15T04:30:16;102295.66;;;5.98;78.50
23261;BME280;11799;47.740;-3.390;2023-02-15T04:32:42;102295.72;;;5.96;79.12
23261;BME280;11799;47.740;-3.390;2023-02-15T04:35:08;102287.94;;;5.93;79.11
23261;BME280;11799;47.740;-3.390;2023-02-15T04:37:34;102282.81;;;5.90;78.79
23261;BME280;11799;47.740;-3.390;2023-02-15T04:40:00;102285.44;;;5.90;78.85
23261;BME280;11799;47.740;-3.390;2023-02-15T04:42:26;102281.97;;;5.88;79.25
23261;BME280;11799;47.740;-3.390;2023-02-15T04:44:53;102293.34;;;5.89;79.23
23261;BME280;11799;47.740;-3.390;2023-02-15T04:47:18;102304.69;;;5.89;79.23
23261;BME280;11799;47.740;-3.390;2023-02-15T04:49:44;102311.84;;;5.84;79.21
23261;BME280;11799;47.740;-3.390;2023-02-15T04:52:10;102307.56;;;5.82;79.20
23261;BME280;11799;47.740;-3.390;2023-02-15T04:54:36;102304.19;;;5.78;78.67
23261;BME280;11799;47.740;-3.390;2023-02-15T04:57:02;102303.41;;;5.76;78.92
23261;BME280;11799;47.740;-3.390;2023-02-15T04:59:27;102310.56;;;5.71;78.97
23261;BME280;11799;47.740;-3.390;2023-02-15T05:01:53;102302.69;;;5.71;78.76
23261;BME280;11799;47.740;-3.390;2023-02-15T05:04:18;102310.66;;;5.68;78.77
23261;BME280;11799;47.740;-3.390;2023-02-15T05:06:44;102305.59;;;5.63;78.80
23261;BME280;11799;47.740;-3.390;2023-02-15T05:09:11;102301.19;;;5.64;79.20
23261;BME280;11799;47.740;-3.390;2023-02-15T05:11:37;102309.09;;;5.62;79.58
23261;BME280;11799;47.740;-3.390;2023-02-15T05:14:03;102310.16;;;5.57;78.92
23261;BME280;11799;47.740;-3.390;2023-02-15T05:16:28;102312.84;;;5.55;79.31
23261;BME280;11799;47.740;-3.390;2023-02-15T05:18:54;102313.84;;;5.51;78.94
23261;BME280;11799;47.740;-3.390;2023-02-15T05:21:20;102305.06;;;5.52;79.18
23261;BME280;11799;47.740;-3.390;2023-02-15T05:23:45;102304.31;;;5.49;79.12
23261;BME280;11799;47.740;-3.390;2023-02-15T05:26:12;102306.00;;;5.51;79.20
23261;BME280;11799;47.740;-3.390;2023-02-15T05:28:56;102305.22;;;5.48;79.17
23261;BME280;11799;47.740;-3.390;2023-02-15T05:31:21;102302.66;;;5.46;79.32
23261;BME280;11799;47.740;-3.390;2023-02-15T05:33:47;102303.66;;;5.42;78.74
23261;BME280;11799;47.740;-3.390;2023-02-15T05:36:13;102300.25;;;5.40;78.82
23261;BME280;11799;47.740;-3.390;2023-02-15T05:38:39;102298.53;;;5.39;78.70
23261;BME280;11799;47.740;-3.390;2023-02-15T05:41:08;102306.22;;;5.44;78.86
23261;BME280;11799;47.740;-3.390;2023-02-15T05:43:34;102305.28;;;5.46;79.04
23261;BME280;11799;47.740;-3.390;2023-02-15T05:46:01;102296.72;;;5.41;78.84
23261;BME280;11799;47.740;-3.390;2023-02-15T05:48:27;102296.84;;;5.37;78.49
23261;BME280;11799;47.740;-3.390;2023-02-15T05:51:01;102298.63;;;5.36;78.74
23261;BME280;11799;47.740;-3.390;2023-02-15T05:53:29;102300.34;;;5.37;78.59
23261;BME280;11799;47.740;-3.390;2023-02-15T05:55:55;102310.88;;;5.36;78.69
23261;BME280;11799;47.740;-3.390;2023-02-15T05:58:25;102312.69;;;5.34;78.96
23261;BME280;11799;47.740;-3.390;2023-02-15T06:00:51;102310.25;;;5.27;78.50
23261;BME280;11799;47.740;-3.390;2023-02-15T06:03:17;102319.69;;;5.33;79.05
23261;BME280;11799;47.740;-3.390;2023-02-15T06:05:43;102312.78;;;5.30;78.87
23261;BME280;11799;47.740;-3.390;2023-02-15T06:08:08;102310.09;;;5.32;79.20
23261;BME280;11799;47.740;-3.390;2023-02-15T06:10:34;102312.00;;;5.27;78.63
23261;BME280;11799;47.740;-3.390;2023-02-15T06:12:59;102326.00;;;5.26;78.65
23261;BME280;11799;47.740;-3.390;2023-02-15T06:15:25;102333.81;;;5.27;79.10
23261;BME280;11799;47.740;-3.390;2023-02-15T06:17:51;102329.53;;;5.25;79.04
23261;BME280;11799;47.740;-3.390;2023-02-15T06:20:17;102330.34;;;5.27;78.51
23261;BME280;11799;47.740;-3.390;2023-02-15T06:22:42;102329.63;;;5.22;78.82
23261;BME280;11799;47.740;-3.390;2023-02-15T06:25:08;102331.47;;;5.20;78.60
23261;BME280;11799;47.740;-3.390;2023-02-15T06:27:35;102325.44;;;5.18;78.93
23261;BME280;11799;47.740;-3.390;2023-02-15T06:30:01;102322.91;;;5.15;78.72
23261;BME280;11799;47.740;-3.390;2023-02-15T06:32:26;102329.94;;;5.13;78.64
23261;BME280;11799;47.740;-3.390;2023-02-15T06:34:52;102335.22;;;5.11;78.87
23261;BME280;11799;47.740;-3.390;2023-02-15T06:37:18;102331.91;;;5.06;78.66
23261;BME280;11799;47.740;-3.390;2023-02-15T06:39:43;102334.56;;;5.05;78.53
23261;BME280;11799;47.740;-3.390;2023-02-15T06:42:09;102334.59;;;5.03;78.60
23261;BME280;11799;47.740;-3.390;2023-02-15T06:44:35;102341.56;;;5.04;78.95
23261;BME280;11799;47.740;-3.390;2023-02-15T06:47:00;102346.03;;;5.01;79.26
23261;BME280;11799;47.740;-3.390;2023-02-15T06:49:26;102355.50;;;5.05;79.12
23261;BME280;11799;47.740;-3.390;2023-02-15T06:51:51;102356.59;;;4.97;78.90
23261;BME280;11799;47.740;-3.390;2023-02-15T06:54:17;102365.22;;;5.01;79.00
23261;BME280;11799;47.740;-3.390;2023-02-15T06:56:43;102366.03;;;5.03;79.39
23261;BME280;11799;47.740;-3.390;2023-02-15T06:59:09;102376.50;;;5.03;79.36
23261;BME280;11799;47.740;-3.390;2023-02-15T07:01:34;102377.41;;;5.02;79.39
23261;BME280;11799;47.740;-3.390;2023-02-15T07:04:02;102382.66;;;5.02;79.47
23261;BME280;11799;47.740;-3.390;2023-02-15T07:06:31;102376.50;;;5.03;79.42
23261;BME280;11799;47.740;-3.390;2023-02-15T07:08:58;102385.34;;;4.99;79.47
23261;BME280;11799;47.740;-3.390;2023-02-15T07:11:24;102394.16;;;4.96;79.37
23261;BME280;11799;47.740;-3.390;2023-02-15T07:14:08;102388.00;;;4.97;79.47
23261;BME280;11799;47.740;-3.390;2023-02-15T07:16:34;102388.88;;;4.98;79.36
23261;BME280;11799;47.740;-3.390;2023-02-15T07:18:59;102387.13;;;4.98;79.50
23261;BME280;11799;47.740;-3.390;2023-02-15T07:21:25;102395.97;;;4.94;79.72
23261;BME280;11799;47.740;-3.390;2023-02-15T07:23:51;102397.75;;;4.92;79.37
23261;BME280;11799;47.740;-3.390;2023-02-15T07:26:16;102402.13;;;4.92;79.65
23261;BME280;11799;47.740;-3.390;2023-02-15T07:28:42;102397.75;;;4.92;79.76
23261;BME280;11799;47.740;-3.390;2023-02-15T07:31:08;102401.28;;;4.91;79.32
23261;BME280;11799;47.740;-3.390;2023-02-15T07:33:34;102416.22;;;4.88;79.59
23261;BME280;11799;47.740;-3.390;2023-02-15T07:36:02;102403.31;;;4.82;79.59
23261;BME280;11799;47.740;-3.390;2023-02-15T07:38:33;102417.84;;;4.92;79.52
23261;BME280;11799;47.740;-3.390;2023-02-15T07:41:05;102423.03;;;4.93;80.08
23261;BME280;11799;47.740;-3.390;2023-02-15T07:43:33;102425.69;;;4.92;79.86
23261;BME280;11799;47.740;-3.390;2023-02-15T07:46:00;102421.28;;;4.94;80.13
23261;BME280;11799;47.740;-3.390;2023-02-15T07:48:26;102422.94;;;4.96;79.96
23261;BME280;11799;47.740;-3.390;2023-02-15T07:50:53;102432.44;;;5.01;80.29
23261;BME280;11799;47.740;-3.390;2023-02-15T07:53:18;102436.00;;;4.98;80.30
23261;BME280;11799;47.740;-3.390;2023-02-15T07:55:44;102432.53;;;4.97;80.08
23261;BME280;11799;47.740;-3.390;2023-02-15T07:58:10;102443.75;;;5.01;79.72
23261;BME280;11799;47.740;-3.390;2023-02-15T08:00:36;102447.13;;;5.06;79.86
23261;BME280;11799;47.740;-3.390;2023-02-15T08:03:25;102438.25;;;5.10;80.20
23261;BME280;11799;47.740;-3.390;2023-02-15T08:05:58;102423.22;;;5.17;80.30
23261;BME280;11799;47.740;-3.390;2023-02-15T08:08:25;102423.06;;;5.21;80.43
23261;BME280;11799;47.740;-3.390;2023-02-15T08:11:05;102420.41;;;5.23;80.11
23261;BME280;11799;47.740;-3.390;2023-02-15T08:13:52;102414.13;;;5.28;79.86
23261;BME280;11799;47.740;-3.390;2023-02-15T08:18:51;102405.94;;;5.39;80.16
23261;BME280;11799;47.740;-3.390;2023-02-15T08:21:17;102411.84;;;5.46;80.48
23261;BME280;11799;47.740;-3.390;2023-02-15T08:23:43;102412.50;;;5.52;79.79
23261;BME280;11799;47.740;-3.390;2023-02-15T08:26:08;102420.00;;;5.64;79.44
23261;BME280;11799;47.740;-3.390;2023-02-15T08:28:34;102420.28;;;5.82;79.83
23261;BME280;11799;47.740;-3.390;2023-02-15T08:31:11;102417.19;;;5.97;79.90
23261;BME280;11799;47.740;-3.390;2023-02-15T08:33:38;102409.53;;;6.17;79.83
23261;BME280;11799;47.740;-3.390;2023-02-15T08:36:09;102407.28;;;6.32;79.71
23261;BME280;11799;47.740;-3.390;2023-02-15T08:38:36;102401.19;;;6.54;79.41
23261;BME280;11799;47.740;-3.390;2023-02-15T08:41:11;102404.94;;;6.72;79.86
23261;BME280;11799;47.740;-3.390;2023-02-15T08:43:37;102402.56;;;6.89;77.40
23261;BME280;11799;47.740;-3.390;2023-02-15T08:46:04;102397.56;;;7.05;77.81
23261;BME280;11799;47.740;-3.390;2023-02-15T08:48:30;102404.00;;;7.20;77.78
23261;BME280;11799;47.740;-3.390;2023-02-15T08:50:55;102401.63;;;7.36;76.45
23261;BME280;11799;47.740;-3.390;2023-02-15T08:53:21;102404.63;;;7.48;76.08
23261;BME280;11799;47.740;-3.390;2023-02-15T08:55:54;102402.34;;;7.61;76.35
23261;BME280;11799;47.740;-3.390;2023-02-15T08:58:20;102410.59;;;7.74;74.98
23261;BME280;11799;47.740;-3.390;2023-02-15T09:00:45;102398.13;;;7.79;76.15
23261;BME280;11799;47.740;-3.390;2023-02-15T09:03:11;102397.56;;;7.92;73.89
23261;BME280;11799;47.740;-3.390;2023-02-15T09:05:36;102393.63;;;8.03;74.13
23261;BME280;11799;47.740;-3.390;2023-02-15T09:08:02;102404.59;;;8.12;73.26
23261;BME280;11799;47.740;-3.390;2023-02-15T09:10:27;102399.06;;;8.18;72.68
23261;BME280;11799;47.740;-3.390;2023-02-15T09:12:53;102402.22;;;8.26;73.46
23261;BME280;11799;47.740;-3.390;2023-02-15T09:15:19;102408.91;;;8.35;72.80
23261;BME280;11799;47.740;-3.390;2023-02-15T09:17:44;102406.88;;;8.42;73.11
23261;BME280;11799;47.740;-3.390;2023-02-15T09:20:10;102416.22;;;8.49;72.95
23261;BME280;11799;47.740;-3.390;2023-02-15T09:22:36;102407.13;;;8.56;72.91
23261;BME280;11799;47.740;-3.390;2023-02-15T09:25:01;102412.13;;;8.62;73.37
23261;BME280;11799;47.740;-3.390;2023-02-15T09:27:27;102406.47;;;8.70;72.61
23261;BME280;11799;47.740;-3.390;2023-02-15T09:29:52;102416.88;;;8.73;72.77
23261;BME280;11799;47.740;-3.390;2023-02-15T09:32:18;102420.03;;;8.81;72.62
23261;BME280;11799;47.740;-3.390;2023-02-15T09:34:43;102412.84;;;8.84;73.34
23261;BME280;11799;47.740;-3.390;2023-02-15T09:37:09;102422.19;;;8.91;73.65
23261;BME280;11799;47.740;-3.390;2023-02-15T09:39:37;102421.91;;;8.98;72.98
23261;BME280;11799;47.740;-3.390;2023-02-15T09:45:00;102433.75;;;9.08;73.24
23261;BME280;11799;47.740;-3.390;2023-02-15T10:15:10;102448.88;;;9.95;75.24
23261;BME280;11799;47.740;-3.390;2023-02-15T10:31:28;102453.25;;;10.13;76.22
23261;BME280;11799;47.740;-3.390;2023-02-15T10:34:18;102461.94;;;10.15;76.40
23261;BME280;11799;47.740;-3.390;2023-02-15T10:39:32;102465.25;;;10.20;76.98
23261;BME280;11799;47.740;-3.390;2023-02-15T10:50:47;102472.75;;;10.45;78.20
23261;BME280;11799;47.740;-3.390;2023-02-15T10:53:30;102479.34;;;10.54;78.91
23261;BME280;11799;47.740;-3.390;2023-02-15T11:02:12;102490.06;;;10.68;78.88
23261;BME280;11799;47.740;-3.390;2023-02-15T11:05:01;102495.13;;;10.73;79.55
23261;BME280;11799;47.740;-3.390;2023-02-15T11:07:38;102505.38;;;10.79;79.32
23261;BME280;11799;47.740;-3.390;2023-02-15T11:10:43;102501.31;;;10.89;79.56
23261;BME280;11799;47.740;-3.390;2023-02-15T11:13:18;102502.94;;;10.91;79.55
23261;BME280;11799;47.740;-3.390;2023-02-15T11:15:57;102499.88;;;10.99;80.17
23261;BME280;11799;47.740;-3.390;2023-02-15T11:18:32;102501.09;;;11.09;79.92
23261;BME280;11799;47.740;-3.390;2023-02-15T11:21:13;102504.50;;;11.11;79.76
23261;BME280;11799;47.740;-3.390;2023-02-15T11:23:46;102494.28;;;11.21;79.84
23261;BME280;11799;47.740;-3.390;2023-02-15T11:26:28;102495.00;;;11.24;80.36
23261;BME280;11799;47.740;-3.390;2023-02-15T11:28:59;102486.63;;;11.32;79.89
23261;BME280;11799;47.740;-3.390;2023-02-15T11:31:37;102492.63;;;11.36;79.64
23261;BME280;11799;47.740;-3.390;2023-02-15T11:34:13;102491.50;;;11.40;79.37
23261;BME280;11799;47.740;-3.390;2023-02-15T11:36:44;102498.09;;;11.48;79.15
23261;BME280;11799;47.740;-3.390;2023-02-15T11:39:15;102502.94;;;11.56;79.05
23261;BME280;11799;47.740;-3.390;2023-02-15T11:41:45;102495.59;;;11.61;78.57
23261;BME280;11799;47.740;-3.390;2023-02-15T11:46:37;102501.22;;;11.71;77.81
23261;BME280;11799;47.740;-3.390;2023-02-15T11:49:21;102496.50;;;11.77;78.08
23261;BME280;11799;47.740;-3.390;2023-02-15T11:51:47;102492.56;;;11.84;78.40
23261;BME280;11799;47.740;-3.390;2023-02-15T11:54:18;102495.81;;;11.89;77.60
23261;BME280;11799;47.740;-3.390;2023-02-15T11:56:46;102494.59;;;11.95;77.32
23261;BME280;11799;47.740;-3.390;2023-02-15T11:59:38;102492.53;;;12.00;77.25
23261;BME280;11799;47.740;-3.390;2023-02-15T12:02:24;102480.94;;;12.03;76.62
23261;BME280;11799;47.740;-3.390;2023-02-15T12:05:01;102473.41;;;12.11;77.28
23261;BME280;11799;47.740;-3.390;2023-02-15T12:07:44;102467.03;;;12.13;76.78
23261;BME280;11799;47.740;-3.390;2023-02-15T12:10:22;102464.38;;;12.13;75.91
23261;BME280;11799;47.740;-3.390;2023-02-15T12:13:10;102463.66;;;12.11;77.03
23261;BME280;11799;47.740;-3.390;2023-02-15T12:15:36;102470.53;;;12.14;76.99
23261;BME280;11799;47.740;-3.390;2023-02-15T12:18:03;102464.88;;;12.06;77.25
23261;BME280;11799;47.740;-3.390;2023-02-15T12:20:32;102461.53;;;12.02;77.08
23261;BME280;11799;47.740;-3.390;2023-02-15T12:23:01;102465.88;;;12.03;77.12
23261;BME280;11799;47.740;-3.390;2023-02-15T12:25:40;102474.59;;;12.05;77.37
23261;BME280;11799;47.740;-3.390;2023-02-15T12:28:39;102476.31;;;12.06;77.35
23261;BME280;11799;47.740;-3.390;2023-02-15T12:31:20;102469.41;;;12.04;76.97
23261;BME280;11799;47.740;-3.390;2023-02-15T12:33:47;102453.84;;;11.98;77.57
23261;BME280;11799;47.740;-3.390;2023-02-15T12:36:20;102458.31;;;11.97;77.99
23261;BME280;11799;47.740;-3.390;2023-02-15T12:41:44;102456.09;;;11.89;78.96
23261;BME280;11799;47.740;-3.390;2023-02-15T12:44:18;102444.47;;;11.92;79.13
23261;BME280;11799;47.740;-3.390;2023-02-15T12:47:04;102445.31;;;11.93;79.90
23261;BME280;11799;47.740;-3.390;2023-02-15T12:49:37;102450.34;;;11.97;80.71
23261;BME280;11799;47.740;-3.390;2023-02-15T12:52:23;102440.88;;;11.93;80.57
23261;BME280;11799;47.740;-3.390;2023-02-15T12:54:49;102443.09;;;12.01;80.93
23261;BME280;11799;47.740;-3.390;2023-02-15T12:57:28;102448.28;;;12.02;80.81
23261;BME280;11799;47.740;-3.390;2023-02-15T13:00:04;102445.47;;;12.05;80.91
23261;BME280;11799;47.740;-3.390;2023-02-15T13:02:43;102445.38;;;12.07;80.66
23261;BME280;11799;47.740;-3.390;2023-02-15T13:05:26;102444.81;;;12.16;81.19
23261;BME280;11799;47.740;-3.390;2023-02-15T13:07:58;102444.53;;;12.20;81.05
23261;BME280;11799;47.740;-3.390;2023-02-15T13:11:09;102431.31;;;12.20;80.53
23261;BME280;11799;47.740;-3.390;2023-02-15T13:13:50;102433.94;;;12.20;81.04
23261;BME280;11799;47.740;-3.390;2023-02-15T13:16:21;102430.38;;;12.21;80.26
23261;BME280;11799;47.740;-3.390;2023-02-15T13:18:51;102431.22;;;12.22;80.64
23261;BME280;11799;47.740;-3.390;2023-02-15T13:21:21;102429.50;;;12.21;80.64
23261;BME280;11799;47.740;-3.390;2023-02-15T13:23:53;102428.56;;;12.22;80.62
23261;BME280;11799;47.740;-3.390;2023-02-15T13:26:23;102421.19;;;12.27;81.29
23261;BME280;11799;47.740;-3.390;2023-02-15T13:29:27;102417.97;;;12.22;80.50
23261;BME280;11799;47.740;-3.390;2023-02-15T13:31:55;102421.66;;;12.19;81.05
23261;BME280;11799;47.740;-3.390;2023-02-15T13:40:14;102421.06;;;12.14;81.23
23261;BME280;11799;47.740;-3.390;2023-02-15T13:42:54;102425.81;;;12.09;80.81
23261;BME280;11799;47.740;-3.390;2023-02-15T13:45:36;102429.22;;;12.11;81.41
23261;BME280;11799;47.740;-3.390;2023-02-15T13:56:24;102399.78;;;12.16;82.49
23261;BME280;11799;47.740;-3.390;2023-02-15T13:59:12;102391.84;;;12.16;81.70
23261;BME280;11799;47.740;-3.390;2023-02-15T14:13:09;102362.34;;;12.08;83.00
23261;BME280;11799;47.740;-3.390;2023-02-15T14:15:47;102365.94;;;12.07;83.63
23261;BME280;11799;47.740;-3.390;2023-02-15T14:18:24;102363.28;;;12.07;83.34
23261;BME280;11799;47.740;-3.390;2023-02-15T14:26:47;102356.97;;;12.09;83.43
23261;BME280;11799;47.740;-3.390;2023-02-15T14:32:18;102359.03;;;12.04;83.95
23261;BME280;11799;47.740;-3.390;2023-02-15T14:34:50;102353.75;;;12.04;83.66
23261;BME280;11799;47.740;-3.390;2023-02-15T14:37:28;102359.03;;;12.04;84.08
23261;BME280;11799;47.740;-3.390;2023-02-15T14:40:02;102355.44;;;12.05;83.82
23261;BME280;11799;47.740;-3.390;2023-02-15T14:43:11;102357.25;;;12.05;83.56
23261;BME280;11799;47.740;-3.390;2023-02-15T14:48:14;102358.28;;;12.02;84.28
23261;BME280;11799;47.740;-3.390;2023-02-15T14:50:45;102343.41;;;12.00;84.14
23261;BME280;11799;47.740;-3.390;2023-02-15T15:01:32;102354.59;;;12.05;84.48
23261;BME280;11799;47.740;-3.390;2023-02-15T15:04:00;102347.41;;;12.07;84.56
23261;BME280;11799;47.740;-3.390;2023-02-15T15:06:31;102351.19;;;12.03;84.20
23261;BME280;11799;47.740;-3.390;2023-02-15T15:09:28;102359.88;;;12.05;84.65
23261;BME280;11799;47.740;-3.390;2023-02-15T15:12:12;102354.50;;;12.06;84.92
23261;BME280;11799;47.740;-3.390;2023-02-15T15:14:41;102350.81;;;12.09;84.84
23261;BME280;11799;47.740;-3.390;2023-02-15T15:17:10;102344.75;;;12.07;84.77
23261;BME280;11799;47.740;-3.390;2023-02-15T15:24:48;102351.84;;;12.06;84.28
23261;BME280;11799;47.740;-3.390;2023-02-15T15:49:49;102352.00;;;11.73;85.35
23261;BME280;11799;47.740;-3.390;2023-02-15T15:52:17;102341.34;;;11.75;85.41
23261;BME280;11799;47.740;-3.390;2023-02-15T15:54:44;102357.22;;;11.75;86.15
23261;BME280;11799;47.740;-3.390;2023-02-15T15:57:38;102353.03;;;11.71;86.02
23261;BME280;11799;47.740;-3.390;2023-02-15T16:00:40;102351.50;;;11.67;86.53
23261;BME280;11799;47.740;-3.390;2023-02-15T16:03:04;102349.03;;;11.64;85.99